sensor_id;sensor_type;location;lat;lon;timestamp;pressure;altitude;pressure_sealevel;temperature;humidity
23899;BME280;20544;50.018;20.010;2023-02-03T00:00:19;99296.25;;;1.12;100.00
23899;BME280;20544;50.018;20.010;2023-02-03T00:03:36;99295.75;;;1.07;100.00
23899;BME280;20544;50.018;20.010;2023-02-03T00:06:54;99300.97;;;1.07;100.00
23899;BME280;20544;50.018;20.010;2023-02-03T00:10:11;99291.14;;;1.11;100.00
23899;BME280;20544;50.018;20.010;2023-02-03T00:13:29;99283.89;;;1.15;100.00
23899;BME280;20544;50.018;20.010;2023-02-03T00:16:45;99292.90;;;1.10;100.00
23899;BME280;20544;50.018;20.010;2023-02-03T00:20:02;99288.30;;;1.14;100.00
23899;BME280;20544;50.018;20.010;2023-02-03T00:23:19;99290.28;;;1.10;100.00
23899;BME280;20544;50.018;20.010;2023-02-03T00:26:41;99306.08;;;1.09;100.00
23899;BME280;20544;50.018;20.010;2023-02-03T00:29:59;99320.70;;;1.11;100.00
23899;BME280;20544;50.018;20.010;2023-02-03T00:33:18;99310.57;;;1.07;100.00
23899;BME280;20544;50.018;20.010;2023-02-03T00:36:35;99318.20;;;1.10;100.00
23899;BME280;20544;50.018;20.010;2023-02-03T00:39:51;99325.54;;;1.05;100.00
23899;BME280;20544;50.018;20.010;2023-02-03T00:43:10;99325.54;;;1.05;100.00
23899;BME280;20544;50.018;20.010;2023-02-03T00:46:27;99341.53;;;1.00;100.00
23899;BME280;20544;50.018;20.010;2023-02-03T00:49:44;99329.09;;;1.04;100.00
23899;BME280;20544;50.018;20.010;2023-02-03T00:53:02;99332.41;;;1.06;100.00
23899;BME280;20544;50.018;20.010;2023-02-03T00:56:19;99335.14;;;1.04;100.00
23899;BME280;20544;50.018;20.010;2023-02-03T00:59:35;99329.48;;;1.10;100.00
23899;BME280;20544;50.018;20.010;2023-02-03T01:02:51;99344.84;;;1.02;100.00
23899;BME280;20544;50.018;20.010;2023-02-03T01:06:15;99343.63;;;0.95;100.00
23899;BME280;20544;50.018;20.010;2023-02-03T01:09:36;99343.41;;;0.98;100.00
23899;BME280;20544;50.018;20.010;2023-02-03T01:12:52;99347.46;;;1.02;100.00
23899;BME280;20544;50.018;20.010;2023-02-03T01:16:11;99349.80;;;0.94;100.00
23899;BME280;20544;50.018;20.010;2023-02-03T01:19:29;99345.39;;;0.94;100.00
23899;BME280;20544;50.018;20.010;2023-02-03T01:22:45;99347.18;;;0.94;100.00
23899;BME280;20544;50.018;20.010;2023-02-03T01:26:06;99352.41;;;0.94;100.00
23899;BME280;20544;50.018;20.010;2023-02-03T01:29:23;99359.19;;;0.96;100.00
23899;BME280;20544;50.018;20.010;2023-02-03T01:32:40;99350.53;;;0.96;100.00
23899;BME280;20544;50.018;20.010;2023-02-03T01:36:00;99351.66;;;0.92;100.00
23899;BME280;20544;50.018;20.010;2023-02-03T01:39:17;99359.50;;;0.92;100.00
23899;BME280;20544;50.018;20.010;2023-02-03T01:42:35;99354.19;;;0.80;100.00
23899;BME280;20544;50.018;20.010;2023-02-03T01:45:51;99353.98;;;0.84;100.00
23899;BME280;20544;50.018;20.010;2023-02-03T01:53:21;99342.80;;;0.82;100.00
23899;BME280;20544;50.018;20.010;2023-02-03T01:56:41;99337.17;;;0.75;100.00
23899;BME280;20544;50.018;20.010;2023-02-03T02:00:02;99340.38;;;0.78;100.00
23899;BME280;20544;50.018;20.010;2023-02-03T02:03:21;99340.19;;;0.82;100.00
23899;BME280;20544;50.018;20.010;2023-02-03T02:06:39;99325.56;;;0.79;100.00
23899;BME280;20544;50.018;20.010;2023-02-03T02:09:57;99325.26;;;0.84;100.00
23899;BME280;20544;50.018;20.010;2023-02-03T02:13:15;99320.12;;;0.82;100.00
23899;BME280;20544;50.018;20.010;2023-02-03T02:16:36;99309.47;;;0.85;100.00
23899;BME280;20544;50.018;20.010;2023-02-03T02:35:27;99321.91;;;0.82;100.00
23899;BME280;20544;50.018;20.010;2023-02-03T02:38:51;99327.55;;;0.75;100.00
23899;BME280;20544;50.018;20.010;2023-02-03T02:42:15;99328.48;;;0.74;100.00
23899;BME280;20544;50.018;20.010;2023-02-03T02:45:40;99330.47;;;0.71;100.00
23899;BME280;20544;50.018;20.010;2023-02-03T02:52:17;99343.53;;;0.71;100.00
23899;BME280;20544;50.018;20.010;2023-02-03T02:55:36;99325.89;;;0.61;100.00
23899;BME280;20544;50.018;20.010;2023-02-03T02:58:54;99323.05;;;0.64;100.00
23899;BME280;20544;50.018;20.010;2023-02-03T03:05:29;99321.91;;;0.56;100.00
23899;BME280;20544;50.018;20.010;2023-02-03T03:08:49;99313.78;;;0.47;100.00
23899;BME280;20544;50.018;20.010;2023-02-03T03:12:09;99305.61;;;0.52;100.00
23899;BME280;20544;50.018;20.010;2023-02-03T03:15:30;99303.23;;;0.49;100.00
23899;BME280;20544;50.018;20.010;2023-02-03T03:22:06;99283.38;;;0.34;100.00
23899;BME280;20544;50.018;20.010;2023-02-03T03:25:27;99268.97;;;0.41;100.00
23899;BME280;20544;50.018;20.010;2023-02-03T03:28:47;99278.59;;;0.40;100.00
23899;BME280;20544;50.018;20.010;2023-02-03T03:32:06;99291.01;;;0.37;100.00
23899;BME280;20544;50.018;20.010;2023-02-03T03:35:23;99295.38;;;0.23;100.00
23899;BME280;20544;50.018;20.010;2023-02-03T03:38:48;99307.27;;;0.27;100.00
23899;BME280;20544;50.018;20.010;2023-02-03T03:42:09;99311.03;;;0.23;100.00
23899;BME280;20544;50.018;20.010;2023-02-03T03:45:31;99309.36;;;0.22;100.00
23899;BME280;20544;50.018;20.010;2023-02-03T03:48:54;99314.58;;;0.22;100.00
23899;BME280;20544;50.018;20.010;2023-02-03T03:52:17;99316.88;;;0.14;100.00
23899;BME280;20544;50.018;20.010;2023-02-03T03:55:36;99313.75;;;0.22;100.00
23899;BME280;20544;50.018;20.010;2023-02-03T03:58:52;99306.04;;;0.20;100.00
23899;BME280;20544;50.018;20.010;2023-02-03T04:02:08;99299.78;;;0.23;100.00
23899;BME280;20544;50.018;20.010;2023-02-03T04:05:27;99294.85;;;0.05;100.00
23899;BME280;20544;50.018;20.010;2023-02-03T04:08:43;99279.28;;;0.04;100.00
23899;BME280;20544;50.018;20.010;2023-02-03T04:11:59;99270.63;;;0.03;100.00
23899;BME280;20544;50.018;20.010;2023-02-03T04:15:16;99265.41;;;0.03;100.00
23899;BME280;20544;50.018;20.010;2023-02-03T04:21:48;99257.58;;;-0.10;100.00
23899;BME280;20544;50.018;20.010;2023-02-03T04:25:06;99261.76;;;-0.07;100.00
23899;BME280;20544;50.018;20.010;2023-02-03T04:28:23;99257.25;;;-0.05;100.00
23899;BME280;20544;50.018;20.010;2023-02-03T04:31:39;99261.42;;;-0.03;100.00
23899;BME280;20544;50.018;20.010;2023-02-03T04:34:55;99266.45;;;0.01;100.00
23899;BME280;20544;50.018;20.010;2023-02-03T04:38:12;99263.84;;;0.01;100.00
23899;BME280;20544;50.018;20.010;2023-02-03T04:41:29;99267.69;;;-0.05;100.00
23899;BME280;20544;50.018;20.010;2023-02-03T04:44:46;99266.34;;;-0.11;100.00
23899;BME280;20544;50.018;20.010;2023-02-03T04:48:02;99264.84;;;-0.15;100.00
23899;BME280;20544;50.018;20.010;2023-02-03T04:51:20;99254.64;;;-0.18;100.00
23899;BME280;20544;50.018;20.010;2023-02-03T04:54:36;99249.41;;;-0.31;100.00
23899;BME280;20544;50.018;20.010;2023-02-03T04:57:57;99247.52;;;-0.29;100.00
23899;BME280;20544;50.018;20.010;2023-02-03T05:01:14;99242.94;;;-0.25;100.00
23899;BME280;20544;50.018;20.010;2023-02-03T05:04:31;99242.63;;;-0.34;100.00
23899;BME280;20544;50.018;20.010;2023-02-03T05:07:47;99247.38;;;-0.40;100.00
23899;BME280;20544;50.018;20.010;2023-02-03T05:11:03;99236.24;;;-0.42;100.00
23899;BME280;20544;50.018;20.010;2023-02-03T05:14:20;99240.60;;;-0.43;100.00
23899;BME280;20544;50.018;20.010;2023-02-03T05:17:36;99239.96;;;-0.46;100.00
23899;BME280;20544;50.018;20.010;2023-02-03T05:20:53;99237.47;;;-0.48;100.00
23899;BME280;20544;50.018;20.010;2023-02-03T05:24:09;99241.86;;;-0.48;100.00
23899;BME280;20544;50.018;20.010;2023-02-03T05:27:26;99238.84;;;-0.42;100.00
23899;BME280;20544;50.018;20.010;2023-02-03T05:30:42;99231.85;;;-0.42;100.00
23899;BME280;20544;50.018;20.010;2023-02-03T05:37:14;99224.22;;;-0.45;100.00
23899;BME280;20544;50.018;20.010;2023-02-03T05:40:30;99209.62;;;-0.47;100.00
23899;BME280;20544;50.018;20.010;2023-02-03T05:44:01;99210.13;;;-0.55;100.00
23899;BME280;20544;50.018;20.010;2023-02-03T05:50:34;99210.63;;;-0.63;100.00
23899;BME280;20544;50.018;20.010;2023-02-03T05:53:51;99213.34;;;-0.64;100.00
23899;BME280;20544;50.018;20.010;2023-02-03T05:57:07;99210.92;;;-0.68;100.00
23899;BME280;20544;50.018;20.010;2023-02-03T06:00:24;99197.47;;;-0.74;100.00
23899;BME280;20544;50.018;20.010;2023-02-03T06:06:56;99192.26;;;-0.74;100.00
23899;BME280;20544;50.018;20.010;2023-02-03T06:10:13;99183.30;;;-0.70;100.00
23899;BME280;20544;50.018;20.010;2023-02-03T06:13:29;99180.69;;;-0.70;100.00
23899;BME280;20544;50.018;20.010;2023-02-03T06:16:46;99171.20;;;-0.71;100.00
23899;BME280;20544;50.018;20.010;2023-02-03T06:24:16;99164.53;;;-0.75;100.00
23899;BME280;20544;50.018;20.010;2023-02-03T06:27:33;99152.96;;;-0.71;100.00
23899;BME280;20544;50.018;20.010;2023-02-03T06:30:52;99152.67;;;-0.67;100.00
23899;BME280;20544;50.018;20.010;2023-02-03T06:37:24;99141.61;;;-0.70;100.00
23899;BME280;20544;50.018;20.010;2023-02-03T06:40:41;99129.22;;;-0.67;100.00
23899;BME280;20544;50.018;20.010;2023-02-03T06:44:00;99130.59;;;-0.61;100.00
23899;BME280;20544;50.018;20.010;2023-02-03T06:50:32;99127.77;;;-0.45;100.00
23899;BME280;20544;50.018;20.010;2023-02-03T06:53:49;99119.36;;;-0.48;100.00
23899;BME280;20544;50.018;20.010;2023-02-03T06:57:06;99114.33;;;-0.52;100.00
23899;BME280;20544;50.018;20.010;2023-02-03T07:00:24;99120.29;;;-0.50;100.00
23899;BME280;20544;50.018;20.010;2023-02-03T07:03:40;99122.89;;;-0.50;100.00
23899;BME280;20544;50.018;20.010;2023-02-03T07:06:57;99122.56;;;-0.45;100.00
23899;BME280;20544;50.018;20.010;2023-02-03T07:10:14;99120.59;;;-0.41;100.00
23899;BME280;20544;50.018;20.010;2023-02-03T07:13:31;99106.63;;;-0.40;100.00
23899;BME280;20544;50.018;20.010;2023-02-03T07:16:47;99093.40;;;-0.37;100.00
23899;BME280;20544;50.018;20.010;2023-02-03T07:23:20;99088.59;;;-0.30;100.00
23899;BME280;20544;50.018;20.010;2023-02-03T07:26:36;99088.98;;;-0.24;100.00
23899;BME280;20544;50.018;20.010;2023-02-03T07:29:52;99085.56;;;-0.24;100.00
23899;BME280;20544;50.018;20.010;2023-02-03T07:36:24;99084.32;;;-0.19;100.00
23899;BME280;20544;50.018;20.010;2023-02-03T07:39:41;99081.29;;;-0.12;100.00
23899;BME280;20544;50.018;20.010;2023-02-03T07:42:58;99089.81;;;-0.10;100.00
23899;BME280;20544;50.018;20.010;2023-02-03T07:46:15;99074.59;;;-0.04;100.00
23899;BME280;20544;50.018;20.010;2023-02-03T07:49:31;99060.59;;;-0.03;100.00
23899;BME280;20544;50.018;20.010;2023-02-03T07:52:50;99060.08;;;0.05;100.00
23899;BME280;20544;50.018;20.010;2023-02-03T07:56:06;99053.30;;;0.03;100.00
23899;BME280;20544;50.018;20.010;2023-02-03T07:59:26;99049.92;;;0.13;100.00
23899;BME280;20544;50.018;20.010;2023-02-03T08:02:42;99036.55;;;0.18;100.00
23899;BME280;20544;50.018;20.010;2023-02-03T08:05:59;99033.83;;;0.20;100.00
23899;BME280;20544;50.018;20.010;2023-02-03T08:09:16;99026.23;;;0.17;100.00
23899;BME280;20544;50.018;20.010;2023-02-03T08:12:32;99033.71;;;0.21;100.00
23899;BME280;20544;50.018;20.010;2023-02-03T08:15:53;99028.79;;;0.29;100.00
23899;BME280;20544;50.018;20.010;2023-02-03T08:22:24;99016.23;;;0.35;100.00
23899;BME280;20544;50.018;20.010;2023-02-03T08:25:41;99003.92;;;0.37;100.00
23899;BME280;20544;50.018;20.010;2023-02-03T08:29:00;98997.53;;;0.41;100.00
23899;BME280;20544;50.018;20.010;2023-02-03T08:32:18;98986.48;;;0.37;100.00
23899;BME280;20544;50.018;20.010;2023-02-03T08:35:35;98983.98;;;0.36;100.00
23899;BME280;20544;50.018;20.010;2023-02-03T08:38:51;98975.38;;;0.46;100.00
23899;BME280;20544;50.018;20.010;2023-02-03T08:42:08;98974.08;;;0.52;100.00
23899;BME280;20544;50.018;20.010;2023-02-03T08:45:25;98974.20;;;0.51;100.00
23899;BME280;20544;50.018;20.010;2023-02-03T08:48:55;98964.64;;;0.62;100.00
23899;BME280;20544;50.018;20.010;2023-02-03T08:52:12;98957.88;;;0.60;100.00
23899;BME280;20544;50.018;20.010;2023-02-03T08:55:29;98950.08;;;0.71;100.00
23899;BME280;20544;50.018;20.010;2023-02-03T08:58:45;98942.94;;;0.73;100.00
23899;BME280;20544;50.018;20.010;2023-02-03T09:02:04;98948.55;;;0.80;100.00
23899;BME280;20544;50.018;20.010;2023-02-03T09:05:22;98935.13;;;0.85;100.00
23899;BME280;20544;50.018;20.010;2023-02-03T09:08:39;98933.97;;;0.89;100.00
23899;BME280;20544;50.018;20.010;2023-02-03T09:11:57;98924.47;;;0.99;100.00
23899;BME280;20544;50.018;20.010;2023-02-03T09:15:14;98929.82;;;0.98;100.00
23899;BME280;20544;50.018;20.010;2023-02-03T09:18:31;98917.11;;;1.04;100.00
23899;BME280;20544;50.018;20.010;2023-02-03T09:21:49;98914.75;;;1.12;100.00
23899;BME280;20544;50.018;20.010;2023-02-03T09:25:06;98924.35;;;1.12;100.00
23899;BME280;20544;50.018;20.010;2023-02-03T09:28:24;98912.02;;;1.14;100.00
23899;BME280;20544;50.018;20.010;2023-02-03T09:31:40;98916.52;;;1.23;100.00
23899;BME280;20544;50.018;20.010;2023-02-03T09:34:57;98909.87;;;1.31;100.00
23899;BME280;20544;50.018;20.010;2023-02-03T09:38:13;98905.83;;;1.38;100.00
23899;BME280;20544;50.018;20.010;2023-02-03T09:41:39;98897.98;;;1.49;100.00
23899;BME280;20544;50.018;20.010;2023-02-03T09:45:07;98893.47;;;1.51;100.00
23899;BME280;20544;50.018;20.010;2023-02-03T09:48:29;98892.98;;;1.57;100.00
23899;BME280;20544;50.018;20.010;2023-02-03T09:51:51;98886.81;;;1.58;100.00
23899;BME280;20544;50.018;20.010;2023-02-03T09:55:16;98880.14;;;1.54;100.00
23899;BME280;20544;50.018;20.010;2023-02-03T09:58:37;98873.03;;;1.45;100.00
23899;BME280;20544;50.018;20.010;2023-02-03T10:01:57;98868.73;;;1.55;100.00
23899;BME280;20544;50.018;20.010;2023-02-03T10:05:24;98854.84;;;1.55;100.00
23899;BME280;20544;50.018;20.010;2023-02-03T10:09:04;98855.79;;;1.54;100.00
23899;BME280;20544;50.018;20.010;2023-02-03T10:12:44;98861.52;;;1.36;100.00
23899;BME280;20544;50.018;20.010;2023-02-03T10:16:10;98837.06;;;1.15;100.00
23899;BME280;20544;50.018;20.010;2023-02-03T10:22:47;98797.16;;;1.24;100.00
23899;BME280;20544;50.018;20.010;2023-02-03T10:26:08;98788.34;;;1.36;100.00
23899;BME280;20544;50.018;20.010;2023-02-03T10:29:33;98778.08;;;1.44;100.00
23899;BME280;20544;50.018;20.010;2023-02-03T10:32:53;98771.77;;;1.58;100.00
23899;BME280;20544;50.018;20.010;2023-02-03T10:36:16;98758.79;;;1.57;100.00
23899;BME280;20544;50.018;20.010;2023-02-03T10:39:38;98744.69;;;1.48;100.00
23899;BME280;20544;50.018;20.010;2023-02-03T10:42:56;98728.41;;;1.44;100.00
23899;BME280;20544;50.018;20.010;2023-02-03T10:46:30;98715.34;;;1.44;100.00
23899;BME280;20544;50.018;20.010;2023-02-03T10:49:51;98706.31;;;1.49;100.00
23899;BME280;20544;50.018;20.010;2023-02-03T10:53:23;98695.78;;;1.39;100.00
23899;BME280;20544;50.018;20.010;2023-02-03T10:56:42;98677.53;;;1.27;100.00
23899;BME280;20544;50.018;20.010;2023-02-03T11:00:10;98666.58;;;1.34;100.00
23899;BME280;20544;50.018;20.010;2023-02-03T11:03:35;98655.28;;;1.33;100.00
23899;BME280;20544;50.018;20.010;2023-02-03T11:06:57;98645.27;;;1.38;100.00
23899;BME280;20544;50.018;20.010;2023-02-03T11:10:33;98647.14;;;1.48;100.00
23899;BME280;20544;50.018;20.010;2023-02-03T11:14:09;98618.59;;;1.35;100.00
23899;BME280;20544;50.018;20.010;2023-02-03T11:17:26;98605.07;;;0.97;100.00
23899;BME280;20544;50.018;20.010;2023-02-03T11:20:44;98592.51;;;0.91;100.00
23899;BME280;20544;50.018;20.010;2023-02-03T11:24:05;98589.98;;;0.68;100.00
23899;BME280;20544;50.018;20.010;2023-02-03T11:27:25;98571.34;;;0.73;100.00
23899;BME280;20544;50.018;20.010;2023-02-03T11:30:44;98559.73;;;0.66;100.00
23899;BME280;20544;50.018;20.010;2023-02-03T11:37:32;98541.28;;;0.46;100.00
23899;BME280;20544;50.018;20.010;2023-02-03T11:40:53;98528.58;;;0.53;100.00
23899;BME280;20544;50.018;20.010;2023-02-03T11:44:19;98515.44;;;0.43;100.00
23899;BME280;20544;50.018;20.010;2023-02-03T11:47:39;98499.47;;;0.57;100.00
23899;BME280;20544;50.018;20.010;2023-02-03T11:52:56;98470.17;;;0.33;100.00
23899;BME280;20544;50.018;20.010;2023-02-03T11:56:25;98465.86;;;0.43;100.00
23899;BME280;20544;50.018;20.010;2023-02-03T11:59:53;98445.56;;;0.46;100.00
23899;BME280;20544;50.018;20.010;2023-02-03T12:03:35;98420.62;;;0.21;100.00
23899;BME280;20544;50.018;20.010;2023-02-03T12:07:35;98417.28;;;0.30;100.00
23899;BME280;20544;50.018;20.010;2023-02-03T12:11:06;98400.03;;;0.39;100.00
23899;BME280;20544;50.018;20.010;2023-02-03T12:14:34;98390.18;;;0.43;100.00
23899;BME280;20544;50.018;20.010;2023-02-03T12:18:09;98377.27;;;0.41;100.00
23899;BME280;20544;50.018;20.010;2023-02-03T12:21:36;98359.58;;;0.45;100.00
23899;BME280;20544;50.018;20.010;2023-02-03T12:25:01;98350.66;;;0.47;100.00
23899;BME280;20544;50.018;20.010;2023-02-03T12:28:29;98332.50;;;0.46;100.00
23899;BME280;20544;50.018;20.010;2023-02-03T12:32:04;98320.67;;;0.42;100.00
23899;BME280;20544;50.018;20.010;2023-02-03T12:38:41;98298.08;;;0.31;100.00
23899;BME280;20544;50.018;20.010;2023-02-03T12:42:02;98299.60;;;0.34;100.00
23899;BME280;20544;50.018;20.010;2023-02-03T12:45:22;98283.43;;;0.40;100.00
23899;BME280;20544;50.018;20.010;2023-02-03T12:48:46;98274.08;;;0.37;100.00
23899;BME280;20544;50.018;20.010;2023-02-03T12:52:10;98261.03;;;0.37;100.00
23899;BME280;20544;50.018;20.010;2023-02-03T12:55:38;98257.99;;;0.32;100.00
23899;BME280;20544;50.018;20.010;2023-02-03T12:59:01;98233.83;;;0.30;100.00
23899;BME280;20544;50.018;20.010;2023-02-03T13:02:23;98231.33;;;0.28;100.00
23899;BME280;20544;50.018;20.010;2023-02-03T13:05:46;98226.11;;;0.28;100.00
23899;BME280;20544;50.018;20.010;2023-02-03T13:09:11;98201.44;;;0.33;100.00
23899;BME280;20544;50.018;20.010;2023-02-03T13:12:32;98195.80;;;0.37;100.00
23899;BME280;20544;50.018;20.010;2023-02-03T13:15:51;98183.03;;;0.34;100.00
23899;BME280;20544;50.018;20.010;2023-02-03T13:22:25;98165.09;;;0.51;100.00
23899;BME280;20544;50.018;20.010;2023-02-03T13:25:51;98160.97;;;0.48;100.00
23899;BME280;20544;50.018;20.010;2023-02-03T13:29:51;98139.17;;;0.59;100.00
23899;BME280;20544;50.018;20.010;2023-02-03T13:33:29;98130.24;;;0.61;100.00
23899;BME280;20544;50.018;20.010;2023-02-03T13:37:15;98116.52;;;0.69;100.00
23899;BME280;20544;50.018;20.010;2023-02-03T13:40:52;98111.15;;;0.71;100.00
23899;BME280;20544;50.018;20.010;2023-02-03T13:44:14;98098.80;;;0.73;100.00
23899;BME280;20544;50.018;20.010;2023-02-03T13:47:32;98087.52;;;0.72;100.00
23899;BME280;20544;50.018;20.010;2023-02-03T13:50:50;98076.95;;;0.74;100.00
23899;BME280;20544;50.018;20.010;2023-02-03T13:54:20;98070.08;;;0.73;100.00
23899;BME280;20544;50.018;20.010;2023-02-03T13:57:39;98061.55;;;0.71;100.00
23899;BME280;20544;50.018;20.010;2023-02-03T14:04:54;98032.43;;;0.75;100.00
23899;BME280;20544;50.018;20.010;2023-02-03T14:16:25;98008.53;;;0.70;100.00
23899;BME280;20544;50.018;20.010;2023-02-03T14:19:57;97989.30;;;0.71;100.00
23899;BME280;20544;50.018;20.010;2023-02-03T14:23:19;97978.16;;;0.69;100.00
23899;BME280;20544;50.018;20.010;2023-02-03T14:26:43;97966.47;;;0.63;100.00
23899;BME280;20544;50.018;20.010;2023-02-03T14:30:08;97959.63;;;0.62;100.00
23899;BME280;20544;50.018;20.010;2023-02-03T14:37:52;97946.14;;;0.57;100.00
23899;BME280;20544;50.018;20.010;2023-02-03T14:41:13;97935.59;;;0.59;100.00
23899;BME280;20544;50.018;20.010;2023-02-03T14:44:36;97927.21;;;0.55;100.00
23899;BME280;20544;50.018;20.010;2023-02-03T14:48:03;97916.38;;;0.50;100.00
23899;BME280;20544;50.018;20.010;2023-02-03T14:51:26;97909.20;;;0.52;100.00
23899;BME280;20544;50.018;20.010;2023-02-03T14:58:39;97897.12;;;0.51;100.00
23899;BME280;20544;50.018;20.010;2023-02-03T15:02:21;97887.38;;;0.53;100.00
23899;BME280;20544;50.018;20.010;2023-02-03T15:08:56;97875.28;;;0.52;100.00
23899;BME280;20544;50.018;20.010;2023-02-03T15:12:21;97872.11;;;0.58;100.00
23899;BME280;20544;50.018;20.010;2023-02-03T15:15:40;97875.96;;;0.64;100.00
23899;BME280;20544;50.018;20.010;2023-02-03T15:18:58;97871.44;;;0.66;100.00
23899;BME280;20544;50.018;20.010;2023-02-03T15:22:25;97875.55;;;0.69;100.00
23899;BME280;20544;50.018;20.010;2023-02-03T15:25:42;97873.45;;;0.72;100.00
23899;BME280;20544;50.018;20.010;2023-02-03T15:29:00;97871.83;;;0.71;100.00
23899;BME280;20544;50.018;20.010;2023-02-03T15:32:20;97868.23;;;0.72;100.00
23899;BME280;20544;50.018;20.010;2023-02-03T15:35:38;97864.66;;;0.73;100.00
23899;BME280;20544;50.018;20.010;2023-02-03T15:38:59;97872.64;;;0.72;100.00
23899;BME280;20544;50.018;20.010;2023-02-03T15:42:21;97876.75;;;0.74;100.00
23899;BME280;20544;50.018;20.010;2023-02-03T15:45:43;97876.75;;;0.74;100.00
23899;BME280;20544;50.018;20.010;2023-02-03T15:49:07;97875.50;;;0.78;100.00
23899;BME280;20544;50.018;20.010;2023-02-03T15:52:27;97869.31;;;0.79;100.00
23899;BME280;20544;50.018;20.010;2023-02-03T15:55:48;97868.60;;;0.87;100.00
23899;BME280;20544;50.018;20.010;2023-02-03T15:59:14;97852.81;;;0.89;100.00
23899;BME280;20544;50.018;20.010;2023-02-03T16:02:40;97853.09;;;0.86;100.00
23899;BME280;20544;50.018;20.010;2023-02-03T16:05:57;97837.54;;;0.94;100.00
23899;BME280;20544;50.018;20.010;2023-02-03T16:09:32;97849.88;;;1.02;100.00
23899;BME280;20544;50.018;20.010;2023-02-03T16:12:50;97852.60;;;1.10;100.00
23899;BME280;20544;50.018;20.010;2023-02-03T16:16:13;97849.98;;;1.10;100.00
23899;BME280;20544;50.018;20.010;2023-02-03T16:22:58;97858.87;;;1.17;100.00
23899;BME280;20544;50.018;20.010;2023-02-03T16:26:19;97855.41;;;1.26;100.00
23899;BME280;20544;50.018;20.010;2023-02-03T16:29:39;97855.94;;;1.30;100.00
23899;BME280;20544;50.018;20.010;2023-02-03T16:33:15;97858.25;;;1.33;100.00
23899;BME280;20544;50.018;20.010;2023-02-03T16:40:02;97853.02;;;1.61;100.00
23899;BME280;20544;50.018;20.010;2023-02-03T16:43:32;97859.97;;;1.70;100.00
23899;BME280;20544;50.018;20.010;2023-02-03T16:47:03;97857.81;;;1.84;100.00
23899;BME280;20544;50.018;20.010;2023-02-03T16:50:41;97866.25;;;1.96;100.00
23899;BME280;20544;50.018;20.010;2023-02-03T16:54:09;97877.61;;;2.04;100.00
23899;BME280;20544;50.018;20.010;2023-02-03T16:57:26;97875.08;;;2.13;100.00
23899;BME280;20544;50.018;20.010;2023-02-03T17:00:44;97841.44;;;2.18;100.00
23899;BME280;20544;50.018;20.010;2023-02-03T17:04:02;97859.39;;;2.31;100.00
23899;BME280;20544;50.018;20.010;2023-02-03T17:08:18;97867.59;;;2.36;100.00
23899;BME280;20544;50.018;20.010;2023-02-03T17:11:36;97865.19;;;2.42;100.00
23899;BME280;20544;50.018;20.010;2023-02-03T17:14:52;97867.80;;;2.42;100.00
23899;BME280;20544;50.018;20.010;2023-02-03T17:18:10;97870.13;;;2.46;100.00
23899;BME280;20544;50.018;20.010;2023-02-03T17:24:43;97873.47;;;2.56;100.00
23899;BME280;20544;50.018;20.010;2023-02-03T17:27:59;97879.52;;;2.56;100.00
23899;BME280;20544;50.018;20.010;2023-02-03T17:31:17;97872.34;;;2.58;100.00
23899;BME280;20544;50.018;20.010;2023-02-03T17:41:10;97898.72;;;2.65;100.00
23899;BME280;20544;50.018;20.010;2023-02-03T17:44:45;97905.61;;;2.66;100.00
23899;BME280;20544;50.018;20.010;2023-02-03T17:48:18;97902.99;;;2.66;100.00
23899;BME280;20544;50.018;20.010;2023-02-03T17:55:08;97918.54;;;2.68;100.00
23899;BME280;20544;50.018;20.010;2023-02-03T17:58:24;97922.00;;;2.68;100.00
23899;BME280;20544;50.018;20.010;2023-02-03T18:01:40;97940.62;;;2.65;100.00
23899;BME280;20544;50.018;20.010;2023-02-03T18:04:57;97944.23;;;2.64;100.00
23899;BME280;20544;50.018;20.010;2023-02-03T18:08:13;97940.62;;;2.65;100.00
23899;BME280;20544;50.018;20.010;2023-02-03T18:11:33;97941.91;;;2.61;100.00
23899;BME280;20544;50.018;20.010;2023-02-03T18:14:50;97956.48;;;2.64;100.00
23899;BME280;20544;50.018;20.010;2023-02-03T18:18:06;97961.56;;;2.65;100.00
23899;BME280;20544;50.018;20.010;2023-02-03T18:21:24;97961.88;;;2.62;100.00
23899;BME280;20544;50.018;20.010;2023-02-03T18:24:41;97967.13;;;2.62;100.00
23899;BME280;20544;50.018;20.010;2023-02-03T18:27:59;97966.59;;;2.58;100.00
23899;BME280;20544;50.018;20.010;2023-02-03T18:31:16;97969.73;;;2.62;100.00
23899;BME280;20544;50.018;20.010;2023-02-03T18:37:49;97981.86;;;2.63;100.00
23899;BME280;20544;50.018;20.010;2023-02-03T18:41:07;97971.83;;;2.58;100.00
23899;BME280;20544;50.018;20.010;2023-02-03T18:44:27;97969.38;;;2.57;100.00
23899;BME280;20544;50.018;20.010;2023-02-03T18:47:44;97970.87;;;2.59;100.00
23899;BME280;20544;50.018;20.010;2023-02-03T18:54:16;97986.41;;;2.61;100.00
23899;BME280;20544;50.018;20.010;2023-02-03T18:57:32;97989.56;;;2.65;100.00
23899;BME280;20544;50.018;20.010;2023-02-03T19:00:49;97984.17;;;2.66;100.00
23899;BME280;20544;50.018;20.010;2023-02-03T19:04:07;97989.41;;;2.66;100.00
23899;BME280;20544;50.018;20.010;2023-02-03T19:10:40;97990.38;;;2.65;100.00
23899;BME280;20544;50.018;20.010;2023-02-03T19:13:56;98000.72;;;2.67;100.00
23899;BME280;20544;50.018;20.010;2023-02-03T19:17:13;97998.22;;;2.65;100.00
23899;BME280;20544;50.018;20.010;2023-02-03T19:20:31;98017.08;;;2.69;100.00
23899;BME280;20544;50.018;20.010;2023-02-03T19:23:48;98007.73;;;2.66;100.00
23899;BME280;20544;50.018;20.010;2023-02-03T19:27:05;98020.02;;;2.66;100.00
23899;BME280;20544;50.018;20.010;2023-02-03T19:30:23;98015.06;;;2.63;100.00
23899;BME280;20544;50.018;20.010;2023-02-03T19:33:40;98015.59;;;2.66;100.00
23899;BME280;20544;50.018;20.010;2023-02-03T19:40:13;98020.30;;;2.63;100.00